Time;durP1;ratioP1;P1;durP2;ratioP2;P2;SDS_P1;SDS_P2;PMS_P1;PMS_P2;Temp;Humidity;BMP_temperature;BMP_pressure;BME280_temperature;BME280_humidity;BME280_pressure;Samples;Min_cycle;Max_cycle;Signal;HPM_P1;HPM_P2
2022/05/22 16:19:34;;;;;;;5.40;1.20;;;23.00;89.70;;;;;;5149470;27;20533;-54
2022/05/22 16:22:00;;;;;;;7.50;2.33;;;23.50;90.40;;;;;;5155657;27;20099;-54
2022/05/22 16:24:27;;;;;;;4.40;1.30;;;23.40;89.80;;;;;;5155887;27;20130;-54
2022/05/22 16:26:54;;;;;;;7.07;1.60;;;23.70;90.30;;;;;;5155601;27;20396;-54
2022/05/22 16:29:19;;;;;;;6.10;1.65;;;23.40;89.30;;;;;;5155686;27;20044;-54
2022/05/22 16:31:46;;;;;;;4.28;1.20;;;23.40;90.00;;;;;;5155950;27;20061;-54
2022/05/22 16:34:22;;;;;;;5.13;1.52;;;23.20;90.00;;;;;;5155821;27;20039;-54
2022/05/22 16:36:48;;;;;;;6.30;1.65;;;23.30;90.50;;;;;;5155609;27;20042;-54
2022/05/22 16:39:14;;;;;;;7.18;1.10;;;23.40;90.00;;;;;;5155992;27;20042;-54
2022/05/22 16:41:40;;;;;;;4.95;1.20;;;23.50;89.50;;;;;;5155458;27;20042;-54
2022/05/22 16:44:06;;;;;;;3.58;1.27;;;23.10;89.20;;;;;;5155326;27;20062;-54
2022/05/22 16:46:32;;;;;;;5.53;1.50;;;23.30;90.10;;;;;;5155289;27;20429;-55
2022/05/22 16:54:26;;;;;;;4.45;1.15;;;22.40;90.60;;;;;;5155374;27;20536;-54
2022/05/22 16:56:53;;;;;;;6.10;1.00;;;22.50;90.60;;;;;;5155627;27;20083;-54
2022/05/22 16:59:23;;;;;;;5.97;1.35;;;22.50;90.70;;;;;;5155284;27;20034;-54
2022/05/22 17:01:53;;;;;;;7.13;1.35;;;22.50;90.50;;;;;;5155290;27;20045;-54
2022/05/22 17:04:22;;;;;;;4.80;1.50;;;22.50;90.20;;;;;;5136502;27;20043;-54
2022/05/22 17:06:56;;;;;;;5.45;1.23;;;22.60;90.60;;;;;;5154891;27;20042;-54
2022/05/22 17:09:25;;;;;;;3.05;1.33;;;22.60;90.00;;;;;;5155070;27;20031;-54
2022/05/22 17:11:53;;;;;;;;;;;22.60;89.80;;;;;;5155287;27;20035;-54
2022/05/22 17:14:26;;;;;;;4.82;1.63;;;22.80;90.30;;;;;;5154799;27;19972;-54
2022/05/22 17:16:54;;;;;;;7.82;1.63;;;22.60;90.20;;;;;;5154733;27;20088;-54
2022/05/22 17:19:21;;;;;;;6.07;1.40;;;22.60;90.50;;;;;;5155000;27;20086;-54
2022/05/22 17:21:53;;;;;;;5.68;1.45;;;22.70;90.80;;;;;;5154466;27;20101;-54
2022/05/22 17:24:25;;;;;;;5.97;1.15;;;22.50;91.00;;;;;;5154886;27;20396;-54
2022/05/22 17:26:51;;;;;;;4.88;1.30;;;22.10;90.90;;;;;;5154772;27;20091;-54
2022/05/22 17:29:17;;;;;;;6.63;1.45;;;22.00;91.10;;;;;;5154578;27;20043;-54
2022/05/22 17:31:43;;;;;;;5.88;1.42;;;22.00;91.20;;;;;;5091080;27;20098;-54
2022/05/22 17:34:09;;;;;;;64.95;4.88;;;21.80;91.10;;;;;;5111284;28;20366;-54
2022/05/22 17:36:35;;;;;;;7.00;1.58;;;21.70;91.30;;;;;;5113553;28;20043;-54
2022/05/22 17:39:01;;;;;;;5.70;1.30;;;21.60;91.20;;;;;;5113332;28;20036;-55
2022/05/22 17:41:28;;;;;;;4.45;1.23;;;21.60;91.40;;;;;;5113125;28;20043;-54
2022/05/22 17:43:54;;;;;;;2.40;0.93;;;21.50;91.70;;;;;;5109698;28;20040;-57
2022/05/22 17:46:22;;;;;;;6.20;1.30;;;21.40;91.50;;;;;;5092630;28;20128;-57
2022/05/22 17:48:47;;;;;;;5.60;1.75;;;21.40;91.90;;;;;;5092631;28;20105;-57
2022/05/22 17:51:18;;;;;;;4.18;1.25;;;21.20;91.20;;;;;;5092570;28;20499;-57
2022/05/22 17:53:45;;;;;;;8.95;1.67;;;20.90;91.80;;;;;;5092373;28;20068;-57
2022/05/22 17:56:10;;;;;;;5.65;1.48;;;21.00;91.90;;;;;;5074965;28;20047;-57
2022/05/22 17:58:36;;;;;;;3.30;1.00;;;20.80;92.40;;;;;;5110971;28;20030;-56
2022/05/22 18:01:03;;;;;;;8.05;1.40;;;20.70;92.30;;;;;;5061266;28;20032;-57
2022/05/22 18:03:28;;;;;;;8.13;1.50;;;20.60;92.50;;;;;;5110875;28;20119;-57
2022/05/22 18:05:55;;;;;;;5.32;1.63;;;20.60;92.20;;;;;;5113397;28;20192;-57
2022/05/22 18:08:24;;;;;;;4.85;1.58;;;20.40;92.20;;;;;;5113174;28;20039;-56
2022/05/22 18:16:24;;;;;;;4.85;1.40;;;20.20;93.20;;;;;;5092485;28;20539;-57
2022/05/22 18:18:50;;;;;;;5.80;1.52;;;20.00;92.90;;;;;;5093715;28;20089;-57
2022/05/22 18:21:30;;;;;;;4.13;1.15;;;20.00;92.80;;;;;;5092617;28;20051;-57
2022/05/22 18:25:27;;;;;;;;;;;19.90;93.40;;;;;;5075013;28;20047;-56
2022/05/22 18:26:47;;;;;;;4.72;1.00;;;19.90;93.50;;;;;;5092896;28;19923;-56
2022/05/22 18:29:13;;;;;;;3.55;1.02;;;19.80;93.20;;;;;;5091611;28;20174;-56
2022/05/22 18:31:39;;;;;;;2.25;1.00;;;19.80;93.60;;;;;;5092783;28;20047;-56
2022/05/22 18:34:05;;;;;;;4.05;1.10;;;19.70;93.80;;;;;;5100192;28;20509;-56
2022/05/22 18:36:31;;;;;;;3.80;1.42;;;19.70;93.90;;;;;;5112615;28;20036;-56
2022/05/22 18:38:56;;;;;;;4.47;1.10;;;19.60;94.00;;;;;;5112853;28;20035;-56
2022/05/22 18:41:24;;;;;;;2.28;0.95;;;19.60;94.00;;;;;;5113004;28;20031;-56
2022/05/22 18:43:54;;;;;;;2.63;1.13;;;19.60;93.80;;;;;;5112610;28;20042;-56
2022/05/22 18:46:20;;;;;;;5.85;1.35;;;19.50;94.30;;;;;;5111145;28;20504;-56
2022/05/22 18:48:47;;;;;;;4.85;1.30;;;19.40;94.60;;;;;;5112770;28;20035;-56
2022/05/22 18:51:15;;;;;;;3.90;1.30;;;19.40;94.60;;;;;;5108643;28;20398;-57
2022/05/22 18:53:41;;;;;;;4.25;1.33;;;19.30;94.70;;;;;;5111831;28;20058;-57
2022/05/22 18:56:30;;;;;;;2.92;1.27;;;19.40;95.10;;;;;;5110773;28;20478;-57
2022/05/22 18:58:57;;;;;;;6.20;1.55;;;19.30;95.70;;;;;;5110030;28;20031;-57
2022/05/22 19:01:25;;;;;;;5.22;1.70;;;19.10;95.40;;;;;;5063749;28;20032;-57
2022/05/22 19:03:51;;;;;;;3.55;1.83;;;19.10;95.50;;;;;;5104494;28;20397;-57
2022/05/22 19:06:17;;;;;;;2.58;1.17;;;19.10;95.70;;;;;;5091502;28;20071;-56
2022/05/22 19:08:44;;;;;;;4.10;0.95;;;19.10;96.40;;;;;;5091616;28;20047;-57
2022/05/22 19:11:12;;;;;;;9.85;1.65;;;19.00;96.30;;;;;;5115169;28;20035;-57
2022/05/22 19:13:44;;;;;;;6.45;1.75;;;18.90;96.50;;;;;;5112974;28;20401;-57
2022/05/22 19:16:28;;;;;;;6.95;1.80;;;18.80;97.20;;;;;;5114988;28;20078;-57
2022/05/22 19:18:54;;;;;;;5.30;1.55;;;18.80;96.80;;;;;;5115197;28;20056;-57
2022/05/22 19:21:20;;;;;;;5.13;1.38;;;18.70;97.00;;;;;;5108954;28;20485;-57
2022/05/22 19:23:47;;;;;;;5.28;1.40;;;18.60;97.10;;;;;;5106541;28;20039;-57
2022/05/22 19:26:13;;;;;;;4.40;1.60;;;18.60;97.50;;;;;;5097050;28;20032;-56
2022/05/22 19:28:41;;;;;;;5.70;1.40;;;18.50;97.50;;;;;;5085909;28;20127;-56
2022/05/22 19:31:08;;;;;;;5.32;1.13;;;18.40;97.90;;;;;;5076436;28;20052;-57
2022/05/22 19:33:34;;;;;;;5.57;1.40;;;18.30;97.80;;;;;;5085677;28;20100;-56
2022/05/22 19:36:04;;;;;;;3.58;1.35;;;18.20;98.20;;;;;;5108276;28;20138;-56
2022/05/22 19:38:31;;;;;;;5.15;1.48;;;18.20;98.50;;;;;;5109208;28;20086;-56
2022/05/22 19:43:56;;;;;;;4.80;1.38;;;18.20;98.90;;;;;;5106536;28;20082;-56
2022/05/22 19:43:57;;;;;;;5.07;1.23;;;18.10;99.40;;;;;;5114162;28;20047;-56
2022/05/22 19:46:30;;;;;;;6.18;1.40;;;18.10;99.50;;;;;;5114107;28;20390;-57
2022/05/22 19:48:57;;;;;;;4.40;1.17;;;18.00;99.90;;;;;;5113973;28;20114;-56
2022/05/22 19:51:25;;;;;;;5.50;1.40;;;18.00;99.90;;;;;;5112003;28;20039;-56
2022/05/22 19:53:52;;;;;;;3.55;1.50;;;17.90;99.90;;;;;;5111673;28;20075;-56
2022/05/22 19:59:04;;;;;;;5.00;1.08;;;17.90;99.90;;;;;;5112110;28;20116;-56
2022/05/22 20:01:31;;;;;;;5.10;1.77;;;17.80;99.90;;;;;;5110783;28;20071;-56
2022/05/22 20:03:57;;;;;;;5.80;1.85;;;17.70;99.90;;;;;;5105460;28;20112;-57
2022/05/22 20:06:22;;;;;;;3.90;1.55;;;17.60;99.90;;;;;;5103455;28;20085;-56
2022/05/22 20:08:58;;;;;;;6.35;2.10;;;17.50;99.90;;;;;;5114314;28;20050;-56
2022/05/22 20:11:30;;;;;;;5.63;1.58;;;17.50;99.90;;;;;;5114253;28;20055;-56
2022/05/22 20:13:57;;;;;;;4.82;1.67;;;17.40;99.90;;;;;;5114180;28;20040;-56
2022/05/22 20:16:26;;;;;;;10.25;2.53;;;17.40;99.90;;;;;;5094754;28;20050;-56
2022/05/22 20:18:53;;;;;;;4.57;1.50;;;17.40;99.90;;;;;;5113755;28;20092;-56
2022/05/22 20:21:19;;;;;;;6.32;2.08;;;17.30;99.90;;;;;;5113503;28;20090;-56
2022/05/22 20:23:47;;;;;;;9.38;2.10;;;17.30;99.90;;;;;;5114282;28;20043;-56
2022/05/22 20:26:15;;;;;;;7.72;1.95;;;17.30;99.90;;;;;;5112631;28;20043;-56
2022/05/22 20:28:41;;;;;;;6.43;1.83;;;17.20;99.90;;;;;;5112496;28;20074;-56
2022/05/22 20:31:07;;;;;;;3.58;1.42;;;17.20;99.90;;;;;;5113742;28;20044;-56
2022/05/22 20:33:34;;;;;;;7.65;2.28;;;17.20;99.90;;;;;;5113734;28;20058;-56
2022/05/22 20:36:00;;;;;;;6.15;1.65;;;17.10;99.90;;;;;;5113745;28;20047;-56
2022/05/22 20:38:27;;;;;;;7.18;1.88;;;17.10;99.90;;;;;;5113899;28;20032;-57
2022/05/22 20:40:57;;;;;;;4.95;1.83;;;17.00;99.90;;;;;;5113716;28;20110;-57
2022/05/22 20:43:25;;;;;;;5.65;2.10;;;17.00;99.90;;;;;;5110862;28;20053;-56
2022/05/22 20:45:54;;;;;;;5.93;2.25;;;17.00;99.90;;;;;;5111252;28;20112;-56
2022/05/22 20:48:20;;;;;;;6.38;2.10;;;17.00;99.90;;;;;;5113132;28;20044;-56
2022/05/22 20:50:46;;;;;;;9.13;1.90;;;16.90;99.90;;;;;;5095126;28;20127;-56
2022/05/22 20:53:11;;;;;;;4.65;1.67;;;16.90;99.90;;;;;;5113107;28;20496;-56
2022/05/22 20:58:22;;;;;;;7.10;1.85;;;16.70;99.90;;;;;;5112261;28;20047;-56
2022/05/22 21:00:50;;;;;;;5.78;1.90;;;16.70;99.90;;;;;;5113255;28;20042;-56
2022/05/22 21:03:17;;;;;;;4.25;1.60;;;16.70;99.90;;;;;;5113641;28;20027;-56
2022/05/22 21:05:48;;;;;;;12.50;2.78;;;16.70;99.90;;;;;;5113381;28;20046;-56
2022/05/22 21:08:18;;;;;;;5.05;1.42;;;16.60;99.90;;;;;;5100780;28;20044;-56
2022/05/22 21:10:44;;;;;;;5.45;1.98;;;16.60;99.90;;;;;;5100736;28;20481;-56
2022/05/22 21:13:10;;;;;;;8.95;1.60;;;16.60;99.90;;;;;;5079563;28;20063;-56
2022/05/22 21:15:36;;;;;;;5.00;1.50;;;16.60;99.90;;;;;;5093271;28;20580;-56
2022/05/22 21:18:02;;;;;;;6.18;1.55;;;16.50;99.90;;;;;;5093397;28;20394;-56
2022/05/22 21:20:28;;;;;;;6.13;1.92;;;16.50;99.90;;;;;;5098129;28;20129;-56
2022/05/22 21:22:54;;;;;;;4.22;1.50;;;16.50;99.90;;;;;;5113781;28;20051;-56
2022/05/22 21:28:31;;;;;;;5.18;1.60;;;16.50;99.90;;;;;;5113844;28;20043;-55
2022/05/22 21:30:58;;;;;;;7.95;1.90;;;16.40;99.90;;;;;;5113822;28;20068;-56
2022/05/22 21:33:25;;;;;;;6.47;1.60;;;16.40;99.90;;;;;;5112474;28;20489;-56
2022/05/22 21:35:52;;;;;;;3.42;1.52;;;16.40;99.90;;;;;;5113671;28;20102;-56
2022/05/22 21:38:18;;;;;;;7.22;1.33;;;16.40;99.90;;;;;;5113487;28;20039;-56
2022/05/22 21:40:45;;;;;;;3.25;1.40;;;16.30;99.90;;;;;;5095280;28;20036;-56
2022/05/22 21:43:12;;;;;;;6.63;1.33;;;16.30;99.90;;;;;;5113678;28;20039;-55
2022/05/22 21:45:39;;;;;;;5.25;1.38;;;16.40;99.90;;;;;;5113480;28;20039;-56
2022/05/22 21:48:06;;;;;;;5.32;1.55;;;16.30;99.90;;;;;;5113619;28;20046;-55
2022/05/22 21:50:32;;;;;;;3.83;1.60;;;16.30;99.90;;;;;;5095193;28;20155;-55
2022/05/22 21:52:58;;;;;;;5.03;1.60;;;16.30;99.90;;;;;;5113095;28;20473;-55
2022/05/22 21:55:24;;;;;;;6.22;1.45;;;16.20;99.90;;;;;;5113182;28;20042;-55
2022/05/22 21:57:50;;;;;;;4.47;1.42;;;16.20;99.90;;;;;;5112910;28;20122;-55
2022/05/22 22:00:41;;;;;;;5.07;1.58;;;16.20;99.90;;;;;;5113030;28;20096;-55
2022/05/22 22:03:07;;;;;;;4.72;1.67;;;16.20;99.90;;;;;;5113218;28;20036;-55
2022/05/22 22:05:33;;;;;;;5.20;1.70;;;16.10;99.90;;;;;;5112835;28;20485;-55
2022/05/22 22:07:59;;;;;;;3.15;1.40;;;16.10;99.90;;;;;;5113081;28;20050;-55
2022/05/22 22:10:25;;;;;;;3.53;1.30;;;16.00;99.90;;;;;;5112690;28;20054;-55
2022/05/22 22:12:50;;;;;;;3.10;1.63;;;16.00;99.90;;;;;;5112588;28;20036;-55
2022/05/22 22:15:17;;;;;;;4.20;1.40;;;16.00;99.90;;;;;;5112811;28;20065;-55
2022/05/22 22:17:42;;;;;;;5.43;1.50;;;15.90;99.90;;;;;;5112400;28;20043;-55
2022/05/22 22:20:09;;;;;;;3.33;1.40;;;16.00;99.90;;;;;;5112961;28;20032;-55
2022/05/22 22:22:34;;;;;;;4.00;1.90;;;15.90;99.90;;;;;;5112588;28;20043;-55
2022/05/22 22:25:00;;;;;;;4.85;1.40;;;15.90;99.90;;;;;;5112807;28;20046;-55
2022/05/22 22:27:31;;;;;;;5.55;1.30;;;15.90;99.90;;;;;;5112712;28;20099;-55
2022/05/22 22:30:02;;;;;;;3.78;1.10;;;15.80;99.90;;;;;;5112514;28;20479;-55
2022/05/22 22:32:28;;;;;;;4.38;1.50;;;15.90;99.90;;;;;;5112590;28;20115;-55
2022/05/22 22:34:54;;;;;;;3.28;1.30;;;15.90;99.90;;;;;;5112471;28;20118;-55
2022/05/22 22:37:20;;;;;;;4.20;1.60;;;15.90;99.90;;;;;;5112542;28;20114;-55
2022/05/22 22:39:45;;;;;;;5.63;1.38;;;15.90;99.90;;;;;;5112595;28;20050;-55
2022/05/22 22:42:13;;;;;;;5.18;1.30;;;15.80;99.90;;;;;;5112443;28;20089;-55
2022/05/22 22:44:40;;;;;;;3.88;1.55;;;15.80;99.90;;;;;;5094093;28;20039;-55
2022/05/22 22:47:07;;;;;;;4.88;1.55;;;15.70;99.90;;;;;;5112503;28;20119;-55
2022/05/22 22:49:33;;;;;;;3.92;1.48;;;15.70;99.90;;;;;;5112374;28;20074;-55
2022/05/22 22:51:59;;;;;;;4.00;1.75;;;15.70;99.90;;;;;;5112410;28;20082;-55
2022/05/22 23:00:05;;;;;;;5.40;1.60;;;15.60;99.90;;;;;;5097405;28;20039;-55
2022/05/22 23:02:31;;;;;;;3.22;1.65;;;15.70;99.90;;;;;;5112101;28;20043;-56
2022/05/22 23:04:56;;;;;;;4.57;1.80;;;15.60;99.90;;;;;;5112393;28;20081;-55
2022/05/22 23:07:22;;;;;;;4.88;1.60;;;15.60;99.90;;;;;;5112023;28;20500;-55
2022/05/22 23:09:48;;;;;;;5.32;1.73;;;15.50;99.90;;;;;;5112401;28;20036;-56
2022/05/22 23:12:18;;;;;;;3.88;1.58;;;15.50;99.90;;;;;;5103564;28;20067;-55
2022/05/22 23:14:44;;;;;;;2.95;1.63;;;15.50;99.90;;;;;;5091945;28;20048;-56
2022/05/22 23:17:09;;;;;;;3.08;1.48;;;15.50;99.90;;;;;;5091717;28;20094;-55
2022/05/22 23:19:35;;;;;;;2.85;1.80;;;15.40;99.90;;;;;;5100342;28;20036;-55
2022/05/22 23:22:01;;;;;;;3.45;1.45;;;15.40;99.90;;;;;;5092993;28;20082;-55
2022/05/22 23:24:26;;;;;;;3.72;1.50;;;15.40;99.90;;;;;;5112195;28;20043;-55
2022/05/22 23:26:52;;;;;;;3.95;1.77;;;15.40;99.90;;;;;;5111866;28;20036;-55
2022/05/22 23:29:18;;;;;;;5.07;1.95;;;15.40;99.90;;;;;;5112072;28;20169;-55
2022/05/22 23:31:44;;;;;;;5.68;1.73;;;15.40;99.90;;;;;;5112192;28;20038;-55
2022/05/22 23:34:09;;;;;;;6.18;1.92;;;15.40;99.90;;;;;;5111976;28;20044;-55
2022/05/22 23:36:48;;;;;;;3.40;1.30;;;15.30;99.90;;;;;;5112016;28;20039;-55
2022/05/22 23:39:17;;;;;;;4.07;1.60;;;15.40;99.90;;;;;;5112077;28;20040;-55
2022/05/22 23:41:55;;;;;;;6.70;2.67;;;15.30;99.90;;;;;;5111669;28;20042;-55
2022/05/22 23:44:24;;;;;;;6.40;1.80;;;15.30;99.90;;;;;;5111701;28;20060;-55
2022/05/22 23:46:50;;;;;;;3.65;1.67;;;15.20;99.90;;;;;;5111900;28;20032;-55
2022/05/22 23:49:16;;;;;;;3.75;1.60;;;15.20;99.90;;;;;;5112058;28;20035;-56
2022/05/22 23:51:48;;;;;;;4.03;1.98;;;15.30;99.90;;;;;;5111641;28;20042;-55
2022/05/22 23:54:29;;;;;;;2.70;1.40;;;15.20;99.90;;;;;;5110529;28;20039;-55
2022/05/22 23:56:56;;;;;;;5.03;1.60;;;15.20;99.90;;;;;;5114123;28;20031;-55
2022/05/22 23:59:22;;;;;;;4.38;1.70;;;15.10;99.90;;;;;;5115279;28;20041;-55
